Time;durP1;ratioP1;P1;durP2;ratioP2;P2;SDS_P1;SDS_P2;PMS_P1;PMS_P2;Temp;Humidity;BMP_temperature;BMP_pressure;BME280_temperature;BME280_humidity;BME280_pressure;Samples;Min_cycle;Max_cycle;Signal;HPM_P1;HPM_P2
2023/07/13 00:01:29;;;;;;;5.50;3.80;;;18.90;99.90;;;;;;5046610;28;20457;-57
2023/07/13 00:03:56;;;;;;;6.13;3.43;;;18.80;99.90;;;;;;5040190;28;20460;-56
2023/07/13 00:06:22;;;;;;;5.83;3.83;;;18.80;99.90;;;;;;5042508;28;20722;-56
2023/07/13 00:08:49;;;;;;;5.80;3.00;;;18.70;99.90;;;;;;5042136;28;20434;-58
2023/07/13 00:11:15;;;;;;;10.10;3.93;;;18.70;99.90;;;;;;5048343;28;20525;-57
2023/07/13 00:13:42;;;;;;;6.53;3.90;;;18.70;99.90;;;;;;5044694;28;20572;-57
2023/07/13 00:16:09;;;;;;;6.63;3.33;;;18.70;99.90;;;;;;5034583;28;20446;-58
2023/07/13 00:18:34;;;;;;;7.70;3.80;;;18.70;99.90;;;;;;5043542;28;20460;-57
2023/07/13 00:21:04;;;;;;;10.53;4.47;;;18.80;99.90;;;;;;5043440;28;20461;-57
2023/07/13 00:23:34;;;;;;;5.13;3.27;;;18.80;99.90;;;;;;5036669;28;20230;-58
2023/07/13 00:26:01;;;;;;;6.10;3.40;;;18.80;99.90;;;;;;5042732;28;20445;-57
2023/07/13 00:28:27;;;;;;;11.50;4.03;;;18.80;99.90;;;;;;5042306;28;20937;-57
2023/07/13 00:30:54;;;;;;;6.47;3.40;;;18.90;99.90;;;;;;5035084;28;20438;-55
2023/07/13 00:33:19;;;;;;;6.00;3.40;;;18.90;99.90;;;;;;5036697;28;20211;-56
2023/07/13 00:35:45;;;;;;;5.57;3.37;;;18.90;99.90;;;;;;5039306;28;20451;-57
2023/07/13 00:38:11;;;;;;;7.40;3.33;;;18.90;99.90;;;;;;5032266;28;20187;-58
2023/07/13 00:40:36;;;;;;;9.60;4.03;;;18.90;99.90;;;;;;5044866;28;20186;-58
2023/07/13 00:43:02;;;;;;;4.30;3.80;;;18.90;99.90;;;;;;5038400;28;20225;-57
2023/07/13 00:45:29;;;;;;;5.77;3.33;;;18.90;99.90;;;;;;5033009;28;20175;-57
2023/07/13 00:47:57;;;;;;;9.43;3.83;;;18.80;99.90;;;;;;5033690;28;20500;-57
2023/07/13 00:50:23;;;;;;;7.50;3.70;;;18.80;99.90;;;;;;5043530;28;20436;-58
2023/07/13 00:52:54;;;;;;;5.50;3.50;;;18.80;99.90;;;;;;5039646;28;20453;-58
2023/07/13 00:55:21;;;;;;;4.67;3.10;;;18.70;99.90;;;;;;5037993;28;20429;-57
2023/07/13 00:57:47;;;;;;;6.87;3.40;;;18.60;99.90;;;;;;5037651;28;20441;-58
2023/07/13 01:00:13;;;;;;;5.33;3.10;;;18.60;99.90;;;;;;5038165;28;21315;-57
2023/07/13 01:02:42;;;;;;;5.10;3.47;;;18.50;99.90;;;;;;5047096;28;20267;-57
2023/07/13 01:05:16;;;;;;;5.20;3.03;;;18.50;99.90;;;;;;5042557;28;20320;-58
2023/07/13 01:07:43;;;;;;;7.03;2.80;;;18.40;99.90;;;;;;5042223;28;20456;-58
2023/07/13 01:10:10;;;;;;;4.83;2.57;;;18.30;99.90;;;;;;5046188;28;20424;-57
2023/07/13 01:12:36;;;;;;;7.20;3.27;;;18.30;99.90;;;;;;5046542;28;20528;-58
2023/07/13 01:15:04;;;;;;;5.27;2.80;;;18.20;99.90;;;;;;5041376;28;20507;-58
2023/07/13 01:17:30;;;;;;;5.33;3.13;;;18.20;99.90;;;;;;5038319;28;20485;-58
2023/07/13 01:19:56;;;;;;;7.77;3.50;;;18.20;99.90;;;;;;5043726;28;20461;-57
2023/07/13 01:22:26;;;;;;;5.63;3.60;;;18.20;99.90;;;;;;5043893;28;20533;-58
2023/07/13 01:24:53;;;;;;;4.90;3.27;;;18.20;99.90;;;;;;5040744;28;20322;-57
2023/07/13 01:27:24;;;;;;;10.90;2.83;;;18.20;99.90;;;;;;5042223;28;20713;-58
2023/07/13 01:29:51;;;;;;;10.43;3.40;;;18.20;99.90;;;;;;5043209;28;20486;-56
2023/07/13 01:32:21;;;;;;;5.30;3.27;;;18.20;99.90;;;;;;5046282;28;20432;-58
2023/07/13 01:34:47;;;;;;;3.50;2.83;;;18.20;99.90;;;;;;5042053;28;20452;-57
2023/07/13 01:37:13;;;;;;;5.47;3.97;;;18.20;99.90;;;;;;5042790;28;20513;-58
2023/07/13 01:39:38;;;;;;;5.40;3.87;;;18.20;99.90;;;;;;5043996;28;20256;-57
2023/07/13 01:42:04;;;;;;;6.53;3.00;;;18.20;99.90;;;;;;5042317;28;20203;-58
2023/07/13 01:44:30;;;;;;;5.60;2.90;;;18.20;99.90;;;;;;5034942;28;20195;-56
2023/07/13 01:46:56;;;;;;;6.50;2.97;;;18.10;99.90;;;;;;5046220;28;20265;-57
2023/07/13 01:49:22;;;;;;;6.90;2.50;;;18.10;99.90;;;;;;5036179;28;20252;-57
2023/07/13 01:51:48;;;;;;;5.60;2.50;;;18.00;99.90;;;;;;5043146;28;20484;-58
2023/07/13 01:54:13;;;;;;;5.83;3.30;;;18.00;99.90;;;;;;5041175;28;20685;-57
2023/07/13 01:56:39;;;;;;;3.40;2.60;;;17.90;99.90;;;;;;5043795;28;20178;-57
2023/07/13 01:59:05;;;;;;;3.37;3.07;;;17.90;99.90;;;;;;5045431;28;20186;-57
2023/07/13 02:01:30;;;;;;;3.17;2.60;;;17.90;99.90;;;;;;5038782;28;20457;-57
2023/07/13 02:03:56;;;;;;;3.93;2.53;;;17.90;99.90;;;;;;5039743;28;20195;-57
2023/07/13 02:06:22;;;;;;;5.43;2.20;;;17.80;99.90;;;;;;5050672;28;20199;-58
2023/07/13 02:08:47;;;;;;;9.90;2.40;;;17.80;99.90;;;;;;5039485;28;20617;-61
2023/07/13 02:11:13;;;;;;;6.10;2.60;;;17.70;99.90;;;;;;5041693;28;20335;-56
2023/07/13 02:13:39;;;;;;;5.00;2.50;;;17.70;99.90;;;;;;5037791;28;20200;-56
2023/07/13 02:16:05;;;;;;;7.00;2.73;;;17.70;99.90;;;;;;5038404;28;20171;-57
2023/07/13 02:18:30;;;;;;;5.13;2.70;;;17.70;99.90;;;;;;5043648;28;20244;-58
2023/07/13 02:20:56;;;;;;;4.60;2.90;;;17.70;99.90;;;;;;5044967;28;20226;-56
2023/07/13 02:23:21;;;;;;;4.43;2.90;;;17.70;99.90;;;;;;5046168;28;20290;-60
2023/07/13 02:25:47;;;;;;;8.00;2.97;;;17.70;99.90;;;;;;5041994;28;20179;-58
2023/07/13 02:28:12;;;;;;;4.77;2.57;;;17.70;99.90;;;;;;5041891;28;20179;-60
2023/07/13 02:30:38;;;;;;;4.17;2.37;;;17.70;99.90;;;;;;5040748;28;20178;-59
2023/07/13 02:33:04;;;;;;;6.17;2.87;;;17.70;99.90;;;;;;5041311;28;20268;-57
2023/07/13 02:35:30;;;;;;;5.70;2.97;;;17.80;99.90;;;;;;5045247;28;20203;-58
2023/07/13 02:37:56;;;;;;;3.47;2.47;;;17.70;99.90;;;;;;5043418;28;20476;-58
2023/07/13 02:40:22;;;;;;;7.00;2.77;;;17.80;99.90;;;;;;5041518;28;20235;-58
2023/07/13 02:42:47;;;;;;;4.93;2.83;;;17.70;99.90;;;;;;5044974;28;20211;-60
2023/07/13 02:45:13;;;;;;;4.40;3.17;;;17.70;99.90;;;;;;5043995;28;20179;-59
2023/07/13 02:47:41;;;;;;;4.87;3.13;;;17.70;99.90;;;;;;5038193;28;20774;-59
2023/07/13 02:50:07;;;;;;;5.67;2.73;;;17.60;99.90;;;;;;5046515;28;20477;-60
2023/07/13 02:52:33;;;;;;;7.90;3.17;;;17.60;99.90;;;;;;5045801;28;20938;-59
2023/07/13 02:54:59;;;;;;;3.50;3.13;;;17.50;99.90;;;;;;5040309;28;20488;-57
2023/07/13 02:57:24;;;;;;;6.40;3.10;;;17.40;99.90;;;;;;5042825;28;20417;-58
2023/07/13 02:59:50;;;;;;;6.13;2.70;;;17.30;99.90;;;;;;5044308;28;20217;-59
2023/07/13 03:02:16;;;;;;;3.07;2.70;;;17.30;99.90;;;;;;5038410;28;20774;-58
2023/07/13 03:04:41;;;;;;;5.67;2.90;;;17.30;99.90;;;;;;5041250;28;20195;-59
2023/07/13 03:07:08;;;;;;;16.47;4.30;;;17.20;99.90;;;;;;5040359;28;20213;-59
2023/07/13 03:09:34;;;;;;;5.80;2.90;;;17.20;99.90;;;;;;5040658;28;20188;-60
2023/07/13 03:12:00;;;;;;;4.93;2.80;;;17.20;99.90;;;;;;5045125;28;20938;-59
2023/07/13 03:14:26;;;;;;;4.40;2.93;;;17.10;99.90;;;;;;5042318;28;20449;-59
2023/07/13 03:16:52;;;;;;;5.17;3.17;;;17.20;99.90;;;;;;5039242;28;20545;-60
2023/07/13 03:19:18;;;;;;;5.67;2.90;;;17.10;99.90;;;;;;5045992;28;20426;-56
2023/07/13 03:21:44;;;;;;;4.00;2.60;;;17.10;99.90;;;;;;5044974;28;20219;-58
2023/07/13 03:24:10;;;;;;;6.87;3.57;;;17.10;99.90;;;;;;5042819;28;20460;-57
2023/07/13 03:26:35;;;;;;;11.33;3.13;;;17.10;99.90;;;;;;5047071;28;20222;-56
2023/07/13 03:29:01;;;;;;;3.00;2.70;;;17.10;99.90;;;;;;5047099;28;20183;-56
2023/07/13 03:31:29;;;;;;;5.87;2.90;;;17.10;99.90;;;;;;5040513;28;20187;-57
2023/07/13 03:33:55;;;;;;;7.20;3.33;;;17.10;99.90;;;;;;5038138;28;20215;-57
2023/07/13 03:36:27;;;;;;;6.57;3.20;;;17.00;99.90;;;;;;5031172;28;20434;-57
2023/07/13 03:38:56;;;;;;;9.93;3.70;;;17.10;99.90;;;;;;5041551;28;20483;-57
2023/07/13 03:41:23;;;;;;;5.93;3.00;;;17.10;99.90;;;;;;5046232;28;20833;-59
2023/07/13 03:43:49;;;;;;;3.83;2.83;;;17.10;99.90;;;;;;5034343;28;21154;-57
2023/07/13 03:46:16;;;;;;;3.87;3.17;;;17.10;99.90;;;;;;5032703;28;20938;-57
2023/07/13 03:48:44;;;;;;;8.43;3.07;;;17.10;99.90;;;;;;5036149;28;20549;-57
2023/07/13 03:51:10;;;;;;;7.73;3.90;;;17.10;99.90;;;;;;5032036;28;20441;-58
2023/07/13 03:53:39;;;;;;;5.63;3.37;;;17.10;99.90;;;;;;5037405;28;20483;-58
2023/07/13 03:56:05;;;;;;;4.60;3.40;;;17.10;99.90;;;;;;5041331;28;20183;-58
2023/07/13 03:58:39;;;;;;;5.60;3.07;;;17.10;99.90;;;;;;5023327;28;20453;-58
2023/07/13 04:01:06;;;;;;;4.93;2.70;;;17.10;99.90;;;;;;5029345;28;20199;-58
2023/07/13 04:03:34;;;;;;;4.27;2.63;;;17.10;99.90;;;;;;5018084;28;20615;-58
2023/07/13 04:06:01;;;;;;;5.17;2.93;;;17.20;99.90;;;;;;5038575;28;20527;-58
2023/07/13 04:08:32;;;;;;;3.40;3.10;;;17.20;99.90;;;;;;5032489;28;20922;-59
2023/07/13 04:10:58;;;;;;;4.07;3.20;;;17.20;99.90;;;;;;5039000;28;20942;-59
2023/07/13 04:13:25;;;;;;;6.43;3.30;;;17.30;99.90;;;;;;5040169;28;20446;-58
2023/07/13 04:15:51;;;;;;;5.27;3.33;;;17.30;99.90;;;;;;5035757;28;20443;-59
2023/07/13 04:18:17;;;;;;;4.83;3.30;;;17.40;99.90;;;;;;5032390;28;20444;-58
2023/07/13 04:20:42;;;;;;;5.00;2.90;;;17.40;99.90;;;;;;5040694;28;20274;-58
2023/07/13 04:23:08;;;;;;;7.27;3.13;;;17.40;99.90;;;;;;5029721;28;20190;-59
2023/07/13 04:25:34;;;;;;;6.20;3.13;;;17.40;99.90;;;;;;5036697;28;20194;-57
2023/07/13 04:27:59;;;;;;;10.57;3.67;;;17.50;99.90;;;;;;5041284;28;20183;-59
2023/07/13 04:30:26;;;;;;;6.43;2.90;;;17.50;99.90;;;;;;5044122;28;20266;-58
2023/07/13 04:32:52;;;;;;;5.30;2.53;;;17.50;99.90;;;;;;5042664;28;20561;-59
2023/07/13 04:35:20;;;;;;;4.30;3.17;;;17.50;99.90;;;;;;5039593;28;20440;-59
2023/07/13 04:37:47;;;;;;;3.40;2.70;;;17.50;99.90;;;;;;5042724;28;20446;-58
2023/07/13 04:40:13;;;;;;;4.30;2.67;;;17.50;99.90;;;;;;5041586;28;20797;-58
2023/07/13 04:42:38;;;;;;;7.33;2.90;;;17.50;99.90;;;;;;5036099;28;20488;-54
2023/07/13 04:45:06;;;;;;;2.60;2.40;;;17.40;99.90;;;;;;5034544;28;20202;-54
2023/07/13 04:47:32;;;;;;;7.00;2.97;;;17.40;99.90;;;;;;5037744;28;20233;-53
2023/07/13 04:49:57;;;;;;;2.80;2.50;;;17.30;99.90;;;;;;5038161;28;20452;-55
2023/07/13 04:52:24;;;;;;;9.60;3.03;;;17.30;99.90;;;;;;5031983;28;20192;-54
2023/07/13 04:54:49;;;;;;;5.50;2.90;;;17.20;99.90;;;;;;5043942;28;20297;-56
2023/07/13 04:57:15;;;;;;;7.13;2.60;;;17.10;99.90;;;;;;5041168;28;20529;-54
2023/07/13 04:59:41;;;;;;;5.90;3.47;;;17.10;99.90;;;;;;5045674;28;20636;-55
2023/07/13 05:02:07;;;;;;;13.63;4.00;;;17.10;99.90;;;;;;5045046;28;20214;-54
2023/07/13 05:04:32;;;;;;;10.60;2.83;;;17.10;99.90;;;;;;5042703;28;20718;-53
2023/07/13 05:06:59;;;;;;;9.67;3.03;;;17.00;99.90;;;;;;5042047;28;20462;-53
2023/07/13 05:09:25;;;;;;;3.00;2.70;;;17.00;99.90;;;;;;5044892;28;20266;-56
2023/07/13 05:11:50;;;;;;;8.17;2.80;;;17.00;99.90;;;;;;5047399;28;20532;-55
2023/07/13 05:14:16;;;;;;;5.47;3.27;;;17.10;99.90;;;;;;5044101;28;20203;-52
2023/07/13 05:16:42;;;;;;;5.23;2.93;;;17.10;99.90;;;;;;5047625;28;20191;-53
2023/07/13 05:19:08;;;;;;;5.67;2.90;;;17.20;99.90;;;;;;5047879;28;20187;-54
2023/07/13 05:21:34;;;;;;;4.43;2.73;;;17.20;99.90;;;;;;5046980;28;20211;-54
2023/07/13 05:23:59;;;;;;;4.53;2.67;;;17.20;99.90;;;;;;5044779;28;20448;-55
2023/07/13 05:26:25;;;;;;;5.90;3.13;;;17.20;99.90;;;;;;5043613;28;20176;-53
2023/07/13 05:28:51;;;;;;;5.53;3.40;;;17.30;99.90;;;;;;5041755;28;20202;-53
2023/07/13 05:31:16;;;;;;;5.57;2.80;;;17.30;99.90;;;;;;5041788;28;20554;-55
2023/07/13 05:33:42;;;;;;;5.17;2.80;;;17.30;99.90;;;;;;5044671;28;20210;-55
2023/07/13 05:36:08;;;;;;;5.77;3.13;;;17.30;99.90;;;;;;5040841;28;20214;-56
2023/07/13 05:38:33;;;;;;;4.13;3.13;;;17.30;99.90;;;;;;5039349;28;20206;-53
2023/07/13 05:40:59;;;;;;;6.53;3.00;;;17.30;99.90;;;;;;5052033;28;20179;-54
2023/07/13 05:43:25;;;;;;;5.00;3.30;;;17.40;99.90;;;;;;5052547;28;20298;-54
2023/07/13 05:45:53;;;;;;;5.30;3.00;;;17.40;99.90;;;;;;5052371;28;20187;-56
2023/07/13 05:48:19;;;;;;;4.53;2.90;;;17.50;99.90;;;;;;5048192;28;20770;-53
2023/07/13 05:50:45;;;;;;;7.20;4.17;;;17.50;99.90;;;;;;5048316;28;20512;-55
2023/07/13 05:53:12;;;;;;;4.97;2.73;;;17.60;99.90;;;;;;5041667;28;20974;-55
2023/07/13 05:55:47;;;;;;;8.60;2.93;;;17.70;99.90;;;;;;5047532;28;20534;-54
2023/07/13 05:58:13;;;;;;;6.63;3.20;;;17.70;99.90;;;;;;5047544;28;20433;-55
2023/07/13 06:00:39;;;;;;;5.13;3.00;;;17.70;99.90;;;;;;5046735;28;20471;-54
2023/07/13 06:03:06;;;;;;;8.43;2.63;;;17.70;99.90;;;;;;5045391;28;20207;-54
2023/07/13 06:05:33;;;;;;;4.07;2.73;;;17.80;99.90;;;;;;5037103;28;20441;-54
2023/07/13 06:07:59;;;;;;;3.53;2.90;;;17.90;99.90;;;;;;5043016;28;20433;-54
2023/07/13 06:10:25;;;;;;;4.57;2.40;;;17.90;99.90;;;;;;5035549;28;20441;-55
2023/07/13 06:12:50;;;;;;;3.80;2.60;;;18.00;99.90;;;;;;5049070;28;20190;-54
2023/07/13 06:15:16;;;;;;;6.23;2.87;;;18.00;99.90;;;;;;5042527;28;20604;-54
2023/07/13 06:17:42;;;;;;;5.80;2.90;;;18.10;99.90;;;;;;5047857;28;20674;-54
2023/07/13 06:20:08;;;;;;;5.03;2.77;;;18.20;99.90;;;;;;5049813;28;20209;-56
2023/07/13 06:22:33;;;;;;;3.00;2.23;;;18.30;99.90;;;;;;5043514;28;20305;-55
2023/07/13 06:24:59;;;;;;;10.20;3.00;;;18.30;99.90;;;;;;5035838;28;20679;-54
2023/07/13 06:27:24;;;;;;;3.20;2.60;;;18.30;99.90;;;;;;5041586;28;20198;-55
2023/07/13 06:29:50;;;;;;;11.23;3.13;;;18.30;99.90;;;;;;5041948;28;20682;-55
2023/07/13 06:32:16;;;;;;;4.40;3.30;;;18.40;99.90;;;;;;5042811;28;20183;-54
2023/07/13 06:34:41;;;;;;;4.63;2.70;;;18.40;99.90;;;;;;5048572;28;20602;-54
2023/07/13 06:37:07;;;;;;;5.80;2.77;;;18.50;98.40;;;;;;5047549;28;20254;-55
2023/07/13 06:39:32;;;;;;;4.53;2.47;;;18.60;96.80;;;;;;5043582;28;20954;-55
2023/07/13 06:41:58;;;;;;;4.43;2.10;;;18.60;92.30;;;;;;5049733;28;20202;-54
2023/07/13 06:44:25;;;;;;;6.37;2.77;;;18.50;89.60;;;;;;5042950;28;20247;-55
2023/07/13 06:46:50;;;;;;;3.80;2.40;;;18.60;85.20;;;;;;5032479;28;20499;-55
2023/07/13 06:49:16;;;;;;;2.57;2.00;;;18.60;84.60;;;;;;5045906;28;20179;-54
2023/07/13 06:51:41;;;;;;;5.37;2.33;;;18.60;87.20;;;;;;5045963;28;20187;-54
2023/07/13 06:54:07;;;;;;;5.63;2.07;;;18.70;86.50;;;;;;5039359;28;20210;-54
2023/07/13 06:56:33;;;;;;;2.53;2.00;;;18.70;85.40;;;;;;5039539;28;20179;-55
2023/07/13 06:58:58;;;;;;;4.63;1.97;;;18.80;84.10;;;;;;5041777;28;20567;-53
2023/07/13 07:01:24;;;;;;;6.30;2.10;;;18.80;81.70;;;;;;5034397;28;20233;-56
2023/07/13 07:03:49;;;;;;;5.23;2.10;;;18.90;76.00;;;;;;5049717;28;20249;-56
2023/07/13 07:06:23;;;;;;;4.97;2.20;;;18.90;73.40;;;;;;5041275;28;20175;-55
2023/07/13 07:08:49;;;;;;;3.57;2.10;;;18.90;72.60;;;;;;5041572;28;20549;-54
2023/07/13 07:11:18;;;;;;;3.97;2.10;;;19.00;70.50;;;;;;5039277;28;20442;-54
2023/07/13 07:13:44;;;;;;;6.63;2.50;;;19.10;71.30;;;;;;5038922;28;20518;-55
2023/07/13 07:16:10;;;;;;;7.70;2.57;;;19.10;72.30;;;;;;5040286;28;20433;-56
2023/07/13 07:18:35;;;;;;;9.80;2.60;;;19.20;71.10;;;;;;5045228;28;20650;-52
2023/07/13 07:21:01;;;;;;;8.57;2.50;;;19.20;70.60;;;;;;5042874;28;20746;-54
2023/07/13 07:23:27;;;;;;;10.37;2.03;;;19.30;70.30;;;;;;5048080;28;20270;-55
2023/07/13 07:25:53;;;;;;;8.57;2.23;;;19.20;63.80;;;;;;5048118;28;20171;-56
2023/07/13 07:28:19;;;;;;;4.53;1.97;;;19.20;63.70;;;;;;5047743;28;20612;-54
2023/07/13 07:30:45;;;;;;;6.13;2.43;;;19.20;64.20;;;;;;5042175;28;20202;-55
2023/07/13 07:33:11;;;;;;;3.87;2.17;;;19.20;60.70;;;;;;5041238;28;20489;-51
2023/07/13 07:35:37;;;;;;;13.73;2.07;;;19.30;61.20;;;;;;5048316;28;20441;-53
2023/07/13 07:38:03;;;;;;;4.17;2.13;;;19.50;61.70;;;;;;5042637;28;20520;-58
2023/07/13 07:40:29;;;;;;;3.13;2.10;;;19.80;61.40;;;;;;5051864;28;20175;-52
2023/07/13 07:42:54;;;;;;;9.93;2.00;;;20.00;58.70;;;;;;5035721;28;20578;-54
2023/07/13 07:45:20;;;;;;;3.50;1.97;;;20.00;56.70;;;;;;5031737;28;20210;-52
2023/07/13 07:47:46;;;;;;;8.63;2.43;;;20.10;55.50;;;;;;5030009;28;20179;-57
2023/07/13 07:50:12;;;;;;;7.07;2.00;;;20.20;56.70;;;;;;5035293;28;20730;-59
2023/07/13 07:52:37;;;;;;;3.20;1.90;;;20.40;58.80;;;;;;5037886;28;20191;-58
2023/07/13 07:55:06;;;;;;;3.03;1.87;;;20.60;59.30;;;;;;5042387;28;20209;-59
2023/07/13 07:57:31;;;;;;;2.97;2.10;;;20.90;58.20;;;;;;5040544;28;20856;-58
2023/07/13 07:59:57;;;;;;;4.30;2.00;;;20.90;56.20;;;;;;5036567;28;20445;-59
2023/07/13 08:02:22;;;;;;;7.90;2.00;;;20.90;54.90;;;;;;5045125;28;20224;-58
2023/07/13 08:04:48;;;;;;;6.43;2.17;;;20.80;56.20;;;;;;5039540;28;20255;-58
2023/07/13 08:07:14;;;;;;;4.00;2.07;;;20.70;56.70;;;;;;5044967;28;20171;-58
2023/07/13 08:09:39;;;;;;;4.60;1.90;;;20.70;57.30;;;;;;5044839;28;20245;-58
2023/07/13 08:12:05;;;;;;;8.77;2.10;;;20.60;56.20;;;;;;5046796;28;20274;-58
2023/07/13 08:14:31;;;;;;;4.60;2.20;;;20.60;55.60;;;;;;5049604;28;20199;-59
2023/07/13 08:16:56;;;;;;;3.83;2.00;;;20.60;55.50;;;;;;5047036;28;20201;-60
2023/07/13 08:19:22;;;;;;;2.50;1.73;;;20.60;55.20;;;;;;5044199;28;20179;-59
2023/07/13 08:21:48;;;;;;;2.30;1.67;;;20.60;55.30;;;;;;5045454;28;20203;-58
2023/07/13 08:24:14;;;;;;;6.93;2.30;;;20.60;54.80;;;;;;5049834;28;20198;-58
2023/07/13 08:26:40;;;;;;;16.40;2.40;;;20.60;55.00;;;;;;5045887;28;20430;-57
2023/07/13 08:29:06;;;;;;;4.33;2.40;;;20.70;55.10;;;;;;5045699;28;20425;-58
2023/07/13 08:31:31;;;;;;;3.80;2.20;;;20.70;55.50;;;;;;5046320;28;20636;-58
2023/07/13 08:33:57;;;;;;;2.03;1.63;;;20.80;55.70;;;;;;5043497;28;20218;-59
2023/07/13 08:36:23;;;;;;;3.43;2.00;;;20.90;55.40;;;;;;5044596;28;20183;-59
2023/07/13 08:38:48;;;;;;;5.03;2.40;;;20.90;55.00;;;;;;5037830;28;20253;-58
2023/07/13 08:41:16;;;;;;;10.93;2.40;;;21.00;54.70;;;;;;5049284;28;20207;-59
2023/07/13 08:43:48;;;;;;;2.73;2.30;;;21.00;54.30;;;;;;5044336;28;20191;-58
2023/07/13 08:46:32;;;;;;;4.03;2.00;;;21.00;54.70;;;;;;5042041;28;20430;-60
2023/07/13 08:49:11;;;;;;;3.40;1.87;;;21.00;55.50;;;;;;5044502;28;20406;-60
2023/07/13 08:51:56;;;;;;;9.00;1.97;;;21.00;55.70;;;;;;5048585;28;20916;-59
2023/07/13 08:54:34;;;;;;;4.00;2.17;;;21.00;55.70;;;;;;5046305;28;20456;-59
2023/07/13 08:57:09;;;;;;;3.07;2.00;;;21.00;55.50;;;;;;5045195;28;20413;-59
2023/07/13 08:59:35;;;;;;;4.57;2.00;;;20.90;55.70;;;;;;5045887;28;20784;-59
2023/07/13 09:02:01;;;;;;;3.83;1.90;;;20.90;56.10;;;;;;5042355;28;20469;-59
2023/07/13 09:04:36;;;;;;;3.27;1.93;;;20.80;55.80;;;;;;5047527;28;20190;-59
2023/07/13 09:07:25;;;;;;;11.40;2.53;;;20.80;55.60;;;;;;5042954;28;20428;-59
2023/07/13 09:10:03;;;;;;;6.27;2.43;;;20.70;56.70;;;;;;5040440;28;20433;-59
2023/07/13 09:12:40;;;;;;;7.13;2.70;;;20.70;56.90;;;;;;5038880;28;20476;-59
2023/07/13 09:15:36;;;;;;;4.13;2.27;;;20.80;56.70;;;;;;5040597;28;20452;-60
2023/07/13 09:18:24;;;;;;;4.77;2.77;;;20.90;57.30;;;;;;5032791;28;20446;-61
2023/07/13 09:20:57;;;;;;;5.93;2.33;;;21.10;58.10;;;;;;5042509;28;20429;-60
2023/07/13 09:23:28;;;;;;;8.93;2.17;;;21.30;58.30;;;;;;5044226;28;20460;-60
2023/07/13 09:26:09;;;;;;;6.70;2.87;;;21.60;58.80;;;;;;5032786;28;20767;-61
2023/07/13 09:28:44;;;;;;;3.30;2.20;;;21.80;58.40;;;;;;5042624;28;20429;-60
2023/07/13 09:31:18;;;;;;;3.53;1.93;;;22.00;56.20;;;;;;5047133;28;20409;-59
2023/07/13 09:33:45;;;;;;;9.03;2.50;;;22.20;56.10;;;;;;5048846;28;20421;-58
2023/07/13 09:36:31;;;;;;;6.20;2.63;;;22.40;56.00;;;;;;5044554;28;20456;-59
2023/07/13 09:39:03;;;;;;;11.13;2.70;;;22.60;55.40;;;;;;5042103;28;20445;-58
2023/07/13 09:41:41;;;;;;;6.77;2.70;;;22.50;55.30;;;;;;5038185;28;20453;-59
2023/07/13 09:44:09;;;;;;;3.07;2.10;;;22.50;55.40;;;;;;5047223;28;20963;-59
2023/07/13 09:46:35;;;;;;;4.73;2.13;;;22.60;56.10;;;;;;5045835;28;20418;-59
2023/07/13 09:49:01;;;;;;;4.90;2.00;;;22.60;55.30;;;;;;5048430;28;20520;-59
2023/07/13 09:51:27;;;;;;;3.73;2.30;;;22.60;54.90;;;;;;5047084;28;20977;-59
2023/07/13 09:53:54;;;;;;;4.57;2.23;;;22.50;54.60;;;;;;5048117;28;20199;-60
2023/07/13 09:56:26;;;;;;;5.63;2.30;;;22.40;55.20;;;;;;5049576;28;20175;-58
2023/07/13 09:58:52;;;;;;;7.10;2.70;;;22.20;55.50;;;;;;5044184;28;20436;-59
2023/07/13 10:01:38;;;;;;;5.13;2.73;;;22.10;56.20;;;;;;5042682;28;20453;-58
2023/07/13 10:04:13;;;;;;;5.23;2.30;;;22.00;56.10;;;;;;5028064;28;20451;-57
2023/07/13 10:06:43;;;;;;;10.83;3.13;;;21.80;55.60;;;;;;5042821;28;20508;-58
2023/07/13 10:09:10;;;;;;;4.20;2.70;;;21.70;56.20;;;;;;5047361;28;20410;-59
2023/07/13 10:11:40;;;;;;;5.10;2.40;;;21.70;56.40;;;;;;5040100;28;20439;-58
2023/07/13 10:14:23;;;;;;;6.00;2.33;;;21.60;57.00;;;;;;5044132;28;20460;-58
2023/07/13 10:17:03;;;;;;;2.63;2.40;;;21.80;56.20;;;;;;5043014;28;20516;-59
2023/07/13 10:19:34;;;;;;;5.77;2.60;;;21.90;55.30;;;;;;5043361;28;20487;-57
2023/07/13 10:22:19;;;;;;;7.83;2.67;;;21.90;56.30;;;;;;5048355;28;20532;-58
2023/07/13 10:24:45;;;;;;;5.40;2.60;;;21.90;55.60;;;;;;5039444;28;20446;-58
2023/07/13 10:27:19;;;;;;;5.93;2.20;;;21.70;55.50;;;;;;5044489;28;20425;-58
2023/07/13 10:29:54;;;;;;;5.60;2.20;;;21.60;55.60;;;;;;5033773;28;20186;-57
2023/07/13 10:32:24;;;;;;;7.00;2.50;;;21.50;55.80;;;;;;5040877;28;20468;-57
2023/07/13 10:34:52;;;;;;;3.70;2.50;;;21.50;56.10;;;;;;5039706;28;20437;-57
2023/07/13 10:37:24;;;;;;;10.23;3.00;;;21.60;56.90;;;;;;5045718;28;20438;-59
2023/07/13 10:39:53;;;;;;;5.23;2.53;;;21.70;57.30;;;;;;5039822;28;20435;-58
2023/07/13 10:42:36;;;;;;;7.10;2.67;;;21.70;56.90;;;;;;5044404;28;20480;-58
2023/07/13 10:45:11;;;;;;;6.37;2.83;;;21.70;56.30;;;;;;5044090;28;20429;-58
2023/07/13 10:47:39;;;;;;;4.03;2.33;;;21.60;56.70;;;;;;5042280;28;20472;-58
2023/07/13 10:50:06;;;;;;;7.80;2.10;;;21.60;56.80;;;;;;5035480;28;20426;-58
2023/07/13 10:52:46;;;;;;;7.33;2.70;;;21.60;57.20;;;;;;5031421;28;20516;-58
2023/07/13 10:55:31;;;;;;;8.47;3.90;;;21.60;56.90;;;;;;5031887;28;21023;-56
2023/07/13 10:58:01;;;;;;;6.53;3.63;;;21.60;57.30;;;;;;5040041;28;20472;-54
2023/07/13 11:00:30;;;;;;;9.13;3.43;;;21.80;58.20;;;;;;5036713;28;20427;-53
2023/07/13 11:03:00;;;;;;;6.57;3.70;;;22.00;57.80;;;;;;5039172;28;20500;-51
2023/07/13 11:05:28;;;;;;;3.27;2.67;;;22.40;58.00;;;;;;5032122;28;20453;-52
2023/07/13 11:08:16;;;;;;;3.53;2.70;;;22.70;57.40;;;;;;5035281;28;20426;-55
2023/07/13 11:10:56;;;;;;;4.23;3.00;;;23.00;57.30;;;;;;5034365;28;20429;-53
2023/07/13 11:13:47;;;;;;;5.20;3.07;;;23.10;56.60;;;;;;5025972;28;20548;-52
2023/07/13 11:16:21;;;;;;;7.60;3.20;;;23.00;56.90;;;;;;5047604;28;20500;-50
2023/07/13 11:19:13;;;;;;;6.37;3.30;;;23.00;56.80;;;;;;5045663;28;20948;-51
2023/07/13 11:22:11;;;;;;;3.93;2.77;;;22.80;56.50;;;;;;5049718;28;20873;-53
2023/07/13 11:24:56;;;;;;;4.03;3.13;;;22.60;57.00;;;;;;5046674;28;20452;-53
2023/07/13 11:27:38;;;;;;;6.17;3.20;;;22.30;56.20;;;;;;5052303;28;20409;-54
2023/07/13 11:30:28;;;;;;;9.00;2.77;;;22.10;55.90;;;;;;5046985;28;21167;-51
2023/07/13 11:33:08;;;;;;;5.63;3.00;;;22.00;56.10;;;;;;5044328;28;20429;-52
2023/07/13 11:35:38;;;;;;;3.30;2.80;;;21.90;56.90;;;;;;5038254;28;20433;-51
2023/07/13 11:38:17;;;;;;;4.53;2.60;;;21.80;56.60;;;;;;5047252;28;20496;-50
2023/07/13 11:40:45;;;;;;;4.13;3.07;;;21.80;57.10;;;;;;5047518;28;20475;-54
2023/07/13 11:43:15;;;;;;;11.83;2.90;;;21.90;57.60;;;;;;5048645;28;20553;-52
2023/07/13 11:45:42;;;;;;;5.73;2.60;;;22.00;56.60;;;;;;5044363;28;20403;-53
2023/07/13 11:48:29;;;;;;;8.60;2.70;;;22.10;56.40;;;;;;5047426;28;20417;-53
2023/07/13 11:51:05;;;;;;;6.60;2.80;;;22.10;56.50;;;;;;5043676;28;20424;-51
2023/07/13 11:53:45;;;;;;;7.60;2.80;;;22.10;55.80;;;;;;5050633;28;20439;-51
2023/07/13 11:56:12;;;;;;;5.53;2.70;;;22.20;56.20;;;;;;5050896;28;20421;-53
2023/07/13 11:58:38;;;;;;;4.27;2.30;;;22.20;55.20;;;;;;5040660;28;20984;-52
2023/07/13 12:01:04;;;;;;;4.60;2.40;;;22.20;54.90;;;;;;5044778;28;20463;-54
2023/07/13 12:03:32;;;;;;;4.53;2.10;;;22.10;54.70;;;;;;5038854;28;20477;-52
2023/07/13 12:06:05;;;;;;;10.03;2.60;;;22.10;55.50;;;;;;5045201;28;20449;-53
2023/07/13 12:08:37;;;;;;;4.00;2.60;;;22.20;54.10;;;;;;5035938;28;20437;-52
2023/07/13 12:11:09;;;;;;;3.80;2.30;;;22.50;54.30;;;;;;5044402;28;20500;-52
2023/07/13 12:13:37;;;;;;;6.23;2.47;;;22.90;55.30;;;;;;5038652;28;20840;-54
2023/07/13 12:16:12;;;;;;;6.47;2.63;;;23.40;55.40;;;;;;5032915;28;20483;-58
2023/07/13 12:18:38;;;;;;;5.67;2.40;;;23.80;54.90;;;;;;5023346;28;20445;-58
2023/07/13 12:21:05;;;;;;;11.90;2.53;;;24.00;54.00;;;;;;5039306;28;20449;-57
2023/07/13 12:23:34;;;;;;;8.20;2.67;;;24.50;53.80;;;;;;5036296;28;20495;-59
2023/07/13 12:26:03;;;;;;;4.97;2.57;;;24.70;52.40;;;;;;5040511;28;20512;-60
2023/07/13 12:28:36;;;;;;;6.83;2.70;;;24.50;51.60;;;;;;5038570;28;20437;-59
2023/07/13 12:31:06;;;;;;;4.03;2.13;;;24.40;52.60;;;;;;5031228;28;20508;-59
2023/07/13 12:33:33;;;;;;;5.50;2.30;;;24.20;51.50;;;;;;5032989;28;20872;-60
2023/07/13 12:36:02;;;;;;;9.70;2.60;;;24.00;52.10;;;;;;5034027;28;20480;-59
2023/07/13 12:38:30;;;;;;;8.13;2.73;;;23.90;52.20;;;;;;5033473;28;20450;-58
2023/07/13 12:40:55;;;;;;;4.80;2.47;;;23.70;51.80;;;;;;5040527;28;20530;-60
2023/07/13 12:43:23;;;;;;;5.53;2.40;;;23.50;52.10;;;;;;5039174;28;20559;-59
2023/07/13 12:46:01;;;;;;;5.33;2.67;;;23.30;52.70;;;;;;5024610;28;20184;-58
2023/07/13 12:48:28;;;;;;;3.80;2.50;;;23.20;53.00;;;;;;5030905;28;20429;-59
2023/07/13 12:50:55;;;;;;;6.97;2.93;;;23.20;53.70;;;;;;5044082;28;20501;-60
2023/07/13 12:53:28;;;;;;;3.40;2.00;;;23.10;53.40;;;;;;5045345;28;20450;-59